createdAt,value
2023-03-31T00:04:13.614Z,99384.09
2023-03-31T00:09:19.477Z,99367.38
2023-03-31T00:14:21.123Z,99380.56
2023-03-31T00:19:22.529Z,99366.38
2023-03-31T00:24:24.183Z,99369.06
2023-03-31T00:29:26.428Z,99344.34
2023-03-31T00:34:28.700Z,99348.66
2023-03-31T00:39:35.632Z,99353.63
2023-03-31T00:45:03.020Z,99327.88
2023-03-31T00:50:06.386Z,99326.56
2023-03-31T00:55:17.551Z,99320.25
2023-03-31T01:00:19.998Z,99291.50
2023-03-31T01:05:27.124Z,99288.84
2023-03-31T01:10:33.010Z,99284.13
2023-03-31T01:15:35.269Z,99274.94
2023-03-31T01:20:42.657Z,99266.25
2023-03-31T01:26:01.409Z,99265.09
2023-03-31T01:31:15.430Z,99264.59
2023-03-31T01:36:54.041Z,99250.38
2023-03-31T01:42:51.080Z,99239.53
2023-03-31T01:48:00.050Z,99206.28
2023-03-31T01:53:11.118Z,99212.94
2023-03-31T01:58:21.751Z,99192.56
2023-03-31T02:03:33.607Z,99188.38
2023-03-31T02:08:42.376Z,99174.22
2023-03-31T02:13:47.733Z,99163.88
2023-03-31T02:18:53.368Z,99161.69
2023-03-31T02:23:55.577Z,99143.50
2023-03-31T02:28:58.345Z,99138.81
2023-03-31T02:34:01.770Z,99140.50
2023-03-31T02:39:09.670Z,99129.34
2023-03-31T02:44:13.362Z,99116.66
2023-03-31T02:49:16.900Z,99112.16
2023-03-31T02:54:32.149Z,99105.81
2023-03-31T02:59:58.203Z,99103.31
2023-03-31T03:05:28.634Z,99091.97
2023-03-31T03:10:45.325Z,99073.97
2023-03-31T03:15:55.261Z,99055.28
2023-03-31T03:20:57.389Z,99029.75
2023-03-31T03:25:58.901Z,98996.41
2023-03-31T03:31:01.574Z,98979.91
2023-03-31T03:36:03.206Z,98974.91
2023-03-31T03:41:04.888Z,98977.56
2023-03-31T03:46:06.848Z,98991.72
2023-03-31T03:51:08.579Z,98968.72
2023-03-31T03:56:12.805Z,98951.88
2023-03-31T04:01:15.160Z,98930.72
2023-03-31T04:06:16.640Z,98929.06
2023-03-31T04:11:19.484Z,98892.53
2023-03-31T04:16:23.630Z,98902.72
2023-03-31T04:21:25.638Z,98901.06
2023-03-31T04:26:43.551Z,98885.38
2023-03-31T04:31:45.171Z,98901.72
2023-03-31T04:36:48.224Z,98890.38
2023-03-31T04:41:50.683Z,98885.03
2023-03-31T04:46:52.292Z,98878.72
2023-03-31T04:51:54.860Z,98862.72
2023-03-31T04:56:56.288Z,98834.56
2023-03-31T05:01:57.982Z,98825.41
2023-03-31T05:06:59.744Z,98826.72
2023-03-31T05:12:01.298Z,98822.03
2023-03-31T05:17:03.360Z,98832.53
2023-03-31T05:22:05.049Z,98853.53
2023-03-31T05:27:06.587Z,98831.03
2023-03-31T05:32:08.193Z,98825.56
2023-03-31T05:37:11.055Z,98813.34
2023-03-31T05:42:12.907Z,98818.19
2023-03-31T05:47:14.442Z,98824.03
2023-03-31T05:52:16.297Z,98808.03
2023-03-31T05:57:19.665Z,98802.34
2023-03-31T06:02:21.399Z,98782.53
2023-03-31T06:07:24.968Z,98762.72
2023-03-31T06:12:26.829Z,98742.19
2023-03-31T06:17:28.641Z,98738.03
2023-03-31T06:22:30.186Z,98721.72
2023-03-31T06:27:31.947Z,98708.38
2023-03-31T06:32:33.629Z,98683.41
2023-03-31T06:37:35.514Z,98670.72
2023-03-31T06:42:36.983Z,98653.56
2023-03-31T06:47:39.180Z,98634.41
2023-03-31T06:52:43.788Z,98627.56
2023-03-31T06:57:45.901Z,98608.09
2023-03-31T07:02:47.624Z,98603.06
2023-03-31T07:07:49.589Z,98587.41
2023-03-31T07:12:51.224Z,98577.41
2023-03-31T07:18:02.487Z,98554.25
2023-03-31T07:23:06.043Z,98553.91
2023-03-31T07:28:09.213Z,98566.41
2023-03-31T07:33:11.681Z,98554.72
2023-03-31T07:38:13.571Z,98559.72
2023-03-31T07:43:15.656Z,98567.91
2023-03-31T07:48:17.082Z,98599.00
2023-03-31T07:53:18.649Z,98586.84
2023-03-31T07:58:20.346Z,98569.84
2023-03-31T08:03:22.443Z,98566.47
2023-03-31T08:08:23.928Z,98557.09
2023-03-31T08:13:26.120Z,98590.19
2023-03-31T08:18:27.639Z,98571.69
2023-03-31T08:23:29.264Z,98570.94
2023-03-31T08:28:30.984Z,98578.03
2023-03-31T08:33:32.993Z,98579.44
2023-03-31T08:38:40.011Z,98566.38
2023-03-31T08:43:45.267Z,98562.06
2023-03-31T08:48:52.305Z,98563.06
2023-03-31T08:54:03.677Z,98546.25
2023-03-31T08:59:07.133Z,98548.03
2023-03-31T09:04:13.364Z,98563.72
2023-03-31T09:09:27.969Z,98556.31
2023-03-31T09:14:37.029Z,98554.56
2023-03-31T09:19:52.624Z,98543.06
2023-03-31T09:25:20.893Z,98535.53
2023-03-31T09:30:30.283Z,98534.28
2023-03-31T09:35:33.954Z,98538.09
2023-03-31T09:40:35.618Z,98535.16
2023-03-31T09:45:37.364Z,98526.03
2023-03-31T09:50:47.787Z,98513.47
2023-03-31T09:56:02.037Z,98515.06
2023-03-31T10:01:07.005Z,98494.97
2023-03-31T10:06:10.770Z,98479.41
2023-03-31T10:11:13.492Z,98486.69
2023-03-31T10:16:43.942Z,98474.84
2023-03-31T10:21:47.432Z,98477.34
2023-03-31T10:26:52.262Z,98480.19
2023-03-31T10:31:54.321Z,98480.75
2023-03-31T10:36:56.418Z,98516.03
2023-03-31T10:41:58.151Z,98537.13
2023-03-31T10:47:14.769Z,98508.06
2023-03-31T10:52:25.922Z,98479.41
2023-03-31T10:57:46.485Z,98467.09
2023-03-31T11:03:06.472Z,98460.25
2023-03-31T11:08:23.489Z,98456.00
2023-03-31T11:13:51.571Z,98458.00
2023-03-31T11:19:08.641Z,98463.75
2023-03-31T11:24:26.279Z,98463.28
2023-03-31T11:29:39.358Z,98458.06
2023-03-31T11:35:06.145Z,98447.91
2023-03-31T11:40:30.354Z,98431.00
2023-03-31T11:45:41.759Z,98435.03
2023-03-31T11:50:47.384Z,98433.16
2023-03-31T11:55:53.968Z,98426.81
2023-03-31T12:01:04.648Z,98430.72
2023-03-31T12:06:17.302Z,98419.53
2023-03-31T12:11:29.543Z,98413.97
2023-03-31T12:16:41.655Z,98405.19
2023-03-31T12:21:51.804Z,98409.16
2023-03-31T12:27:00.140Z,98391.41
2023-03-31T12:32:10.402Z,98388.66
2023-03-31T12:37:51.316Z,98415.84
2023-03-31T12:42:52.805Z,98375.69
2023-03-31T12:48:24.250Z,98394.16
2023-03-31T12:53:32.124Z,98386.69
2023-03-31T12:58:39.129Z,98378.41
2023-03-31T13:04:11.594Z,98395.78
2023-03-31T13:09:13.054Z,98392.59
2023-03-31T13:14:14.648Z,98379.53
2023-03-31T13:19:36.604Z,98371.94
2023-03-31T13:24:38.344Z,98349.16
2023-03-31T13:29:45.340Z,98345.09
2023-03-31T13:34:55.880Z,98352.78
2023-03-31T13:39:57.619Z,98365.44
2023-03-31T13:45:10.804Z,98347.44
2023-03-31T13:50:36.528Z,98329.22
2023-03-31T13:55:56.449Z,98343.16
2023-03-31T14:01:11.418Z,98342.34
2023-03-31T14:06:31.635Z,98338.25
2023-03-31T14:11:36.028Z,98335.00
2023-03-31T14:16:54.339Z,98330.06
2023-03-31T14:22:04.632Z,98329.84
2023-03-31T14:27:30.768Z,98331.31
2023-03-31T14:33:06.142Z,98326.75
2023-03-31T14:38:16.962Z,98322.59
2023-03-31T14:43:22.010Z,98325.41
2023-03-31T14:48:23.504Z,98321.25
2023-03-31T14:53:28.282Z,98309.59
2023-03-31T14:58:35.234Z,98328.13
2023-03-31T15:03:41.690Z,98320.22
2023-03-31T15:08:43.876Z,98307.72
2023-03-31T15:14:00.842Z,98313.88
2023-03-31T15:19:17.803Z,98342.78
2023-03-31T15:24:19.657Z,98338.94
2023-03-31T15:29:34.019Z,98339.56
2023-03-31T15:34:36.809Z,98327.88
2023-03-31T15:39:39.566Z,98352.78
2023-03-31T15:44:47.007Z,98366.53
2023-03-31T15:50:03.185Z,98366.63
2023-03-31T15:55:23.504Z,98363.97
2023-03-31T16:00:34.201Z,98353.41
2023-03-31T16:05:54.553Z,98349.94
2023-03-31T16:11:04.867Z,98339.34
2023-03-31T16:16:15.276Z,98328.44
2023-03-31T16:21:28.521Z,98345.63
2023-03-31T16:26:30.457Z,98346.34
2023-03-31T16:31:37.739Z,98348.38
2023-03-31T16:36:39.540Z,98358.63
2023-03-31T16:41:41.054Z,98355.78
2023-03-31T16:46:42.535Z,98357.63
2023-03-31T16:51:44.278Z,98343.09
2023-03-31T16:56:48.077Z,98344.72
2023-03-31T17:01:49.680Z,98347.03
2023-03-31T17:06:52.611Z,98350.16
2023-03-31T17:11:54.096Z,98342.59
2023-03-31T17:16:56.497Z,98352.53
2023-03-31T17:22:02.004Z,98352.19
2023-03-31T17:27:03.439Z,98346.09
2023-03-31T17:32:04.877Z,98350.94
2023-03-31T17:37:07.170Z,98341.47
2023-03-31T17:42:10.126Z,98349.75
2023-03-31T17:47:12.073Z,98358.47
2023-03-31T17:52:13.738Z,98352.34
2023-03-31T17:57:15.468Z,98362.69
2023-03-31T18:02:18.178Z,98374.22
2023-03-31T18:07:20.505Z,98379.91
2023-03-31T18:12:21.934Z,98383.63
2023-03-31T18:17:25.318Z,98395.97
2023-03-31T18:22:29.689Z,98392.00
2023-03-31T18:27:31.658Z,98381.56
2023-03-31T18:32:33.281Z,98385.59
2023-03-31T18:37:37.675Z,98401.59
2023-03-31T18:42:40.690Z,98400.25
2023-03-31T18:47:42.188Z,98415.91
2023-03-31T18:52:43.771Z,98421.09
2023-03-31T18:57:45.167Z,98422.06
2023-03-31T19:02:47.103Z,98416.13
2023-03-31T19:07:48.802Z,98412.16
2023-03-31T19:12:50.335Z,98422.19
2023-03-31T19:17:52.244Z,98414.47
2023-03-31T19:22:53.819Z,98412.16
2023-03-31T19:27:56.658Z,98418.03
2023-03-31T19:32:58.323Z,98420.47
2023-03-31T19:37:59.842Z,98412.81
2023-03-31T19:43:01.843Z,98402.84
2023-03-31T19:48:03.561Z,98412.41
2023-03-31T19:53:05.016Z,98399.91
2023-03-31T19:58:06.864Z,98399.53
2023-03-31T20:03:08.417Z,98397.59
2023-03-31T20:08:11.091Z,98390.75
2023-03-31T20:13:12.962Z,98401.94
2023-03-31T20:18:14.735Z,98402.31
2023-03-31T20:23:16.354Z,98414.44
2023-03-31T20:28:17.771Z,98411.28
2023-03-31T20:33:19.335Z,98416.63
2023-03-31T20:38:21.174Z,98426.28
2023-03-31T20:43:23.674Z,98414.81
2023-03-31T20:48:25.494Z,98425.94
2023-03-31T20:53:27.403Z,98428.31
2023-03-31T20:58:29.113Z,98419.97
2023-03-31T21:03:31.202Z,98421.00
2023-03-31T21:08:33.243Z,98424.16
2023-03-31T21:13:36.070Z,98430.34
2023-03-31T21:18:38.323Z,98428.50
2023-03-31T21:23:40.446Z,98421.50
2023-03-31T21:28:44.203Z,98431.69
2023-03-31T21:33:47.777Z,98433.81
2023-03-31T21:38:50.163Z,98431.69
2023-03-31T21:43:52.133Z,98428.84
2023-03-31T21:48:54.103Z,98434.06
2023-03-31T21:53:56.111Z,98416.69
2023-03-31T21:58:57.644Z,98426.00
2023-03-31T22:03:59.530Z,98414.09
2023-03-31T22:09:01.292Z,98415.06
2023-03-31T22:14:02.897Z,98415.44
2023-03-31T22:19:05.683Z,98421.25
2023-03-31T22:24:10.468Z,98419.44
2023-03-31T22:29:15.931Z,98408.00
2023-03-31T22:34:19.650Z,98417.63
2023-03-31T22:39:21.127Z,98415.78
2023-03-31T22:44:22.900Z,98417.44
2023-03-31T22:49:24.366Z,98407.97
2023-03-31T22:54:26.102Z,98417.78
2023-03-31T22:59:27.682Z,98409.47
2023-03-31T23:04:29.351Z,98418.13
2023-03-31T23:09:31.203Z,98418.13
2023-03-31T23:14:32.908Z,98414.44
2023-03-31T23:19:34.514Z,98422.09
2023-03-31T23:24:36.241Z,98405.81
2023-03-31T23:29:38.000Z,98407.31
2023-03-31T23:34:41.822Z,98406.16
2023-03-31T23:39:43.459Z,98412.19
2023-03-31T23:44:44.869Z,98418.66
2023-03-31T23:49:46.574Z,98410.50
2023-03-31T23:54:48.033Z,98419.47
2023-03-31T23:59:50.746Z,98418.50
